sensor_id;sensor_type;location;lat;lon;timestamp;pressure;altitude;pressure_sealevel;temperature;humidity
14295;BME280;7231;59.370;18.016;2023-04-24T00:00:56;99994.03;;;6.90;93.89
14295;BME280;7231;59.370;18.016;2023-04-24T00:03:25;99968.31;;;6.72;93.54
14295;BME280;7231;59.370;18.016;2023-04-24T00:05:55;99997.50;;;6.91;93.81
14295;BME280;7231;59.370;18.016;2023-04-24T00:08:23;100002.84;;;6.95;94.10
14295;BME280;7231;59.370;18.016;2023-04-24T00:10:51;99988.81;;;6.90;93.81
14295;BME280;7231;59.370;18.016;2023-04-24T00:13:19;99937.00;;;6.71;93.51
14295;BME280;7231;59.370;18.016;2023-04-24T00:15:49;100003.25;;;7.09;93.59
14295;BME280;7231;59.370;18.016;2023-04-24T00:18:17;99960.94;;;6.88;93.10
14295;BME280;7231;59.370;18.016;2023-04-24T00:20:45;99995.31;;;7.04;93.15
14295;BME280;7231;59.370;18.016;2023-04-24T00:23:14;100007.75;;;7.14;93.38
14295;BME280;7231;59.370;18.016;2023-04-24T00:25:42;100007.09;;;7.22;93.10
14295;BME280;7231;59.370;18.016;2023-04-24T00:28:10;100013.28;;;7.25;92.70
14295;BME280;7231;59.370;18.016;2023-04-24T00:30:38;100013.22;;;7.24;92.99
14295;BME280;7231;59.370;18.016;2023-04-24T00:33:07;100008.56;;;7.12;92.57
14295;BME280;7231;59.370;18.016;2023-04-24T00:35:36;100024.09;;;7.09;92.44
14295;BME280;7231;59.370;18.016;2023-04-24T00:38:04;100023.06;;;7.02;92.74
14295;BME280;7231;59.370;18.016;2023-04-24T00:40:32;100016.59;;;6.90;93.19
14295;BME280;7231;59.370;18.016;2023-04-24T00:43:00;100025.22;;;6.87;93.24
14295;BME280;7231;59.370;18.016;2023-04-24T00:45:29;100030.38;;;6.86;92.67
14295;BME280;7231;59.370;18.016;2023-04-24T00:47:57;100025.75;;;6.77;93.07
14295;BME280;7231;59.370;18.016;2023-04-24T00:50:28;100017.94;;;6.77;93.48
14295;BME280;7231;59.370;18.016;2023-04-24T00:52:57;100034.09;;;6.94;92.94
14295;BME280;7231;59.370;18.016;2023-04-24T00:55:25;100018.53;;;6.97;93.33
14295;BME280;7231;59.370;18.016;2023-04-24T00:57:53;100031.94;;;7.09;93.22
14295;BME280;7231;59.370;18.016;2023-04-24T01:00:22;100032.81;;;7.09;92.99
14295;BME280;7231;59.370;18.016;2023-04-24T01:02:50;100025.88;;;7.10;92.45
14295;BME280;7231;59.370;18.016;2023-04-24T01:05:19;100034.50;;;7.07;92.76
14295;BME280;7231;59.370;18.016;2023-04-24T01:07:49;100040.53;;;7.06;92.81
14295;BME280;7231;59.370;18.016;2023-04-24T01:10:17;100040.63;;;7.09;92.75
14295;BME280;7231;59.370;18.016;2023-04-24T01:12:46;100044.06;;;7.08;92.50
14295;BME280;7231;59.370;18.016;2023-04-24T01:15:14;100039.78;;;7.10;91.86
14295;BME280;7231;59.370;18.016;2023-04-24T01:17:43;100036.31;;;7.10;92.54
14295;BME280;7231;59.370;18.016;2023-04-24T01:20:11;100037.19;;;7.10;91.57
14295;BME280;7231;59.370;18.016;2023-04-24T01:22:41;100043.28;;;7.11;92.32
14295;BME280;7231;59.370;18.016;2023-04-24T01:25:10;100041.47;;;7.08;92.44
14295;BME280;7231;59.370;18.016;2023-04-24T01:27:38;100045.84;;;7.09;92.11
14295;BME280;7231;59.370;18.016;2023-04-24T01:30:07;100055.28;;;7.06;91.93
14295;BME280;7231;59.370;18.016;2023-04-24T01:32:36;100046.28;;;6.95;91.32
14295;BME280;7231;59.370;18.016;2023-04-24T01:35:06;100063.13;;;7.06;91.31
14295;BME280;7231;59.370;18.016;2023-04-24T01:37:34;100051.91;;;7.08;91.57
14295;BME280;7231;59.370;18.016;2023-04-24T01:40:06;100054.56;;;7.10;91.92
14295;BME280;7231;59.370;18.016;2023-04-24T01:42:35;100052.88;;;7.12;92.08
14295;BME280;7231;59.370;18.016;2023-04-24T01:45:05;100057.25;;;7.13;91.89
14295;BME280;7231;59.370;18.016;2023-04-24T01:47:33;100054.59;;;7.11;91.27
14295;BME280;7231;59.370;18.016;2023-04-24T01:50:01;100063.16;;;7.07;91.45
14295;BME280;7231;59.370;18.016;2023-04-24T01:52:29;100058.59;;;7.00;91.42
14295;BME280;7231;59.370;18.016;2023-04-24T01:54:59;100060.19;;;6.95;91.39
14295;BME280;7231;59.370;18.016;2023-04-24T01:57:29;100065.31;;;6.92;90.90
14295;BME280;7231;59.370;18.016;2023-04-24T01:59:58;100064.38;;;6.90;90.67
14295;BME280;7231;59.370;18.016;2023-04-24T02:02:26;100067.78;;;6.88;91.26
14295;BME280;7231;59.370;18.016;2023-04-24T02:04:55;100072.00;;;6.84;90.21
14295;BME280;7231;59.370;18.016;2023-04-24T02:07:23;99924.28;;;5.95;91.01
14295;BME280;7231;59.370;18.016;2023-04-24T02:09:51;100070.06;;;6.77;90.11
14295;BME280;7231;59.370;18.016;2023-04-24T02:12:19;100083.91;;;6.76;90.36
14295;BME280;7231;59.370;18.016;2023-04-24T02:14:49;100070.75;;;6.71;90.48
14295;BME280;7231;59.370;18.016;2023-04-24T02:17:17;100080.16;;;6.66;90.34
14295;BME280;7231;59.370;18.016;2023-04-24T02:19:45;100084.38;;;6.63;90.24
14295;BME280;7231;59.370;18.016;2023-04-24T02:22:13;100086.00;;;6.59;91.02
14295;BME280;7231;59.370;18.016;2023-04-24T02:24:41;100085.84;;;6.55;90.55
14295;BME280;7231;59.370;18.016;2023-04-24T02:27:10;100084.88;;;6.51;90.54
14295;BME280;7231;59.370;18.016;2023-04-24T02:29:38;100081.34;;;6.49;90.26
14295;BME280;7231;59.370;18.016;2023-04-24T02:32:08;100079.56;;;6.48;90.35
14295;BME280;7231;59.370;18.016;2023-04-24T02:34:38;100090.06;;;6.51;90.63
14295;BME280;7231;59.370;18.016;2023-04-24T02:37:06;100060.94;;;6.36;90.58
14295;BME280;7231;59.370;18.016;2023-04-24T02:39:34;100086.59;;;6.50;90.10
14295;BME280;7231;59.370;18.016;2023-04-24T02:42:02;100083.09;;;6.50;90.45
14295;BME280;7231;59.370;18.016;2023-04-24T02:44:30;100090.88;;;6.48;90.48
14295;BME280;7231;59.370;18.016;2023-04-24T02:46:58;100102.00;;;6.44;89.91
14295;BME280;7231;59.370;18.016;2023-04-24T02:49:28;100101.03;;;6.41;90.33
14295;BME280;7231;59.370;18.016;2023-04-24T02:51:56;100092.22;;;6.37;90.68
14295;BME280;7231;59.370;18.016;2023-04-24T02:54:24;100097.38;;;6.36;90.08
14295;BME280;7231;59.370;18.016;2023-04-24T02:56:52;100095.47;;;6.30;90.39
14295;BME280;7231;59.370;18.016;2023-04-24T02:59:20;100105.63;;;6.23;90.32
14295;BME280;7231;59.370;18.016;2023-04-24T03:01:48;100113.22;;;6.16;90.14
14295;BME280;7231;59.370;18.016;2023-04-24T03:04:16;100107.81;;;6.10;89.91
14295;BME280;7231;59.370;18.016;2023-04-24T03:06:48;100112.19;;;6.11;89.55
14295;BME280;7231;59.370;18.016;2023-04-24T03:09:18;100116.41;;;6.08;90.17
14295;BME280;7231;59.370;18.016;2023-04-24T03:11:46;100117.25;;;6.07;89.80
14295;BME280;7231;59.370;18.016;2023-04-24T03:14:15;100125.03;;;6.07;89.86
14295;BME280;7231;59.370;18.016;2023-04-24T03:16:43;100117.25;;;6.07;89.96
14295;BME280;7231;59.370;18.016;2023-04-24T03:19:13;100082.16;;;5.96;90.04
14295;BME280;7231;59.370;18.016;2023-04-24T03:21:41;100114.69;;;6.08;89.44
14295;BME280;7231;59.370;18.016;2023-04-24T03:24:16;100117.19;;;6.05;89.64
14295;BME280;7231;59.370;18.016;2023-04-24T03:26:44;100120.56;;;6.03;89.19
14295;BME280;7231;59.370;18.016;2023-04-24T03:29:12;100128.44;;;6.04;89.13
14295;BME280;7231;59.370;18.016;2023-04-24T03:31:39;100121.44;;;6.03;89.33
14295;BME280;7231;59.370;18.016;2023-04-24T03:34:07;100123.91;;;5.99;89.49
14295;BME280;7231;59.370;18.016;2023-04-24T03:36:36;100150.63;;;5.95;89.26
14295;BME280;7231;59.370;18.016;2023-04-24T03:39:04;100132.38;;;5.93;90.07
14295;BME280;7231;59.370;18.016;2023-04-24T03:41:33;100136.78;;;5.96;89.96
14295;BME280;7231;59.370;18.016;2023-04-24T03:44:02;100134.25;;;5.97;90.38
14295;BME280;7231;59.370;18.016;2023-04-24T03:46:30;100137.69;;;5.96;89.65
14295;BME280;7231;59.370;18.016;2023-04-24T03:48:58;100132.25;;;5.90;90.07
14295;BME280;7231;59.370;18.016;2023-04-24T03:51:25;100123.56;;;5.90;90.03
14295;BME280;7231;59.370;18.016;2023-04-24T03:53:55;100118.13;;;5.83;90.06
14295;BME280;7231;59.370;18.016;2023-04-24T03:56:23;100132.44;;;5.95;90.37
14295;BME280;7231;59.370;18.016;2023-04-24T03:58:52;100130.72;;;5.95;90.05
14295;BME280;7231;59.370;18.016;2023-04-24T04:01:21;100136.75;;;5.94;90.00
14295;BME280;7231;59.370;18.016;2023-04-24T04:03:49;100136.69;;;5.93;89.93
14295;BME280;7231;59.370;18.016;2023-04-24T04:06:17;100144.44;;;5.91;89.96
14295;BME280;7231;59.370;18.016;2023-04-24T04:08:46;100143.56;;;5.91;90.01
14295;BME280;7231;59.370;18.016;2023-04-24T04:11:13;100153.19;;;5.93;89.26
14295;BME280;7231;59.370;18.016;2023-04-24T04:13:41;100160.09;;;5.93;89.14
14295;BME280;7231;59.370;18.016;2023-04-24T04:16:11;100164.16;;;5.86;89.03
14295;BME280;7231;59.370;18.016;2023-04-24T04:18:39;100179.09;;;5.90;89.15
14295;BME280;7231;59.370;18.016;2023-04-24T04:21:07;100186.19;;;5.94;89.46
14295;BME280;7231;59.370;18.016;2023-04-24T04:23:35;100041.09;;;5.14;89.07
14295;BME280;7231;59.370;18.016;2023-04-24T04:26:03;100186.41;;;6.00;89.18
14295;BME280;7231;59.370;18.016;2023-04-24T04:28:31;100180.03;;;5.92;89.11
14295;BME280;7231;59.370;18.016;2023-04-24T04:30:59;100182.44;;;5.87;88.97
14295;BME280;7231;59.370;18.016;2023-04-24T04:33:30;100203.72;;;6.00;88.43
14295;BME280;7231;59.370;18.016;2023-04-24T04:35:58;100205.50;;;6.01;88.58
14295;BME280;7231;59.370;18.016;2023-04-24T04:38:29;100206.44;;;6.03;88.59
14295;BME280;7231;59.370;18.016;2023-04-24T04:40:57;100218.63;;;6.04;88.52
14295;BME280;7231;59.370;18.016;2023-04-24T04:43:25;100235.19;;;6.06;88.65
14295;BME280;7231;59.370;18.016;2023-04-24T04:45:54;100235.19;;;6.06;88.98
14295;BME280;7231;59.370;18.016;2023-04-24T04:48:23;100235.19;;;6.06;88.75
14295;BME280;7231;59.370;18.016;2023-04-24T04:50:52;100238.59;;;6.05;88.57
14295;BME280;7231;59.370;18.016;2023-04-24T04:53:20;100233.19;;;5.99;88.77
14295;BME280;7231;59.370;18.016;2023-04-24T04:55:48;100237.16;;;5.89;88.63
14295;BME280;7231;59.370;18.016;2023-04-24T04:58:16;100236.72;;;6.01;88.85
14295;BME280;7231;59.370;18.016;2023-04-24T05:00:44;100222.19;;;5.83;88.76
14295;BME280;7231;59.370;18.016;2023-04-24T05:03:12;100257.44;;;5.98;88.59
14295;BME280;7231;59.370;18.016;2023-04-24T05:05:43;100273.94;;;5.98;89.01
14295;BME280;7231;59.370;18.016;2023-04-24T05:08:12;100258.19;;;5.95;89.06
14295;BME280;7231;59.370;18.016;2023-04-24T05:10:43;100207.84;;;5.71;89.53
14295;BME280;7231;59.370;18.016;2023-04-24T05:13:11;100252.06;;;5.93;89.12
14295;BME280;7231;59.370;18.016;2023-04-24T05:15:39;100259.88;;;5.93;89.21
14295;BME280;7231;59.370;18.016;2023-04-24T05:18:07;100234.34;;;5.84;89.74
14295;BME280;7231;59.370;18.016;2023-04-24T05:20:36;100248.31;;;5.86;89.91
14295;BME280;7231;59.370;18.016;2023-04-24T05:23:03;100255.28;;;5.87;89.67
14295;BME280;7231;59.370;18.016;2023-04-24T05:25:33;100241.88;;;5.77;90.36
14295;BME280;7231;59.370;18.016;2023-04-24T05:28:02;100253.78;;;5.93;90.62
14295;BME280;7231;59.370;18.016;2023-04-24T05:30:29;100257.25;;;5.93;90.10
14295;BME280;7231;59.370;18.016;2023-04-24T05:32:57;100249.34;;;5.90;90.51
14295;BME280;7231;59.370;18.016;2023-04-24T05:35:27;100254.53;;;5.90;90.44
14295;BME280;7231;59.370;18.016;2023-04-24T05:37:55;100252.88;;;5.92;90.76
14295;BME280;7231;59.370;18.016;2023-04-24T05:40:23;100257.31;;;5.95;91.09
14295;BME280;7231;59.370;18.016;2023-04-24T05:42:55;100266.84;;;5.94;91.03
14295;BME280;7231;59.370;18.016;2023-04-24T05:45:23;100281.31;;;5.87;90.97
14295;BME280;7231;59.370;18.016;2023-04-24T05:47:51;100279.28;;;5.80;90.45
14295;BME280;7231;59.370;18.016;2023-04-24T05:50:20;100282.44;;;5.72;90.89
14295;BME280;7231;59.370;18.016;2023-04-24T05:52:48;100280.53;;;5.68;90.94
14295;BME280;7231;59.370;18.016;2023-04-24T05:55:16;100282.56;;;5.75;91.04
14295;BME280;7231;59.370;18.016;2023-04-24T05:57:45;100272.25;;;5.78;91.02
14295;BME280;7231;59.370;18.016;2023-04-24T06:00:15;100262.41;;;5.69;91.02
14295;BME280;7231;59.370;18.016;2023-04-24T06:02:45;100269.31;;;5.69;91.06
14295;BME280;7231;59.370;18.016;2023-04-24T06:05:14;100280.78;;;5.74;91.56
14295;BME280;7231;59.370;18.016;2023-04-24T06:07:42;100287.88;;;5.78;91.36
14295;BME280;7231;59.370;18.016;2023-04-24T06:10:10;100284.31;;;5.76;91.25
14295;BME280;7231;59.370;18.016;2023-04-24T06:12:38;100290.59;;;5.81;91.25
14295;BME280;7231;59.370;18.016;2023-04-24T06:15:07;100292.19;;;5.77;91.58
14295;BME280;7231;59.370;18.016;2023-04-24T06:17:37;100283.44;;;5.75;91.25
14295;BME280;7231;59.370;18.016;2023-04-24T06:20:05;100288.00;;;5.81;91.60
14295;BME280;7231;59.370;18.016;2023-04-24T06:22:34;100294.91;;;5.80;91.32
14295;BME280;7231;59.370;18.016;2023-04-24T06:25:03;100286.81;;;5.73;91.53
14295;BME280;7231;59.370;18.016;2023-04-24T06:27:31;100279.00;;;5.73;91.73
14295;BME280;7231;59.370;18.016;2023-04-24T06:29:59;100282.56;;;5.75;92.03
14295;BME280;7231;59.370;18.016;2023-04-24T06:32:27;100287.16;;;5.82;92.18
14295;BME280;7231;59.370;18.016;2023-04-24T06:34:56;100279.25;;;5.79;91.95
14295;BME280;7231;59.370;18.016;2023-04-24T06:37:25;100291.16;;;5.95;91.75
14295;BME280;7231;59.370;18.016;2023-04-24T06:39:53;100279.41;;;5.83;91.58
14295;BME280;7231;59.370;18.016;2023-04-24T06:42:21;100288.50;;;5.93;91.88
14295;BME280;7231;59.370;18.016;2023-04-24T06:44:51;100278.06;;;5.93;91.82
14295;BME280;7231;59.370;18.016;2023-04-24T06:47:19;100295.75;;;6.02;91.30
14295;BME280;7231;59.370;18.016;2023-04-24T06:49:47;100294.97;;;6.04;91.01
14295;BME280;7231;59.370;18.016;2023-04-24T06:52:18;100294.09;;;6.04;91.40
14295;BME280;7231;59.370;18.016;2023-04-24T06:54:47;100147.19;;;5.26;91.47
14295;BME280;7231;59.370;18.016;2023-04-24T06:57:15;100305.69;;;6.12;90.96
14295;BME280;7231;59.370;18.016;2023-04-24T06:59:43;100293.88;;;5.98;91.24
14295;BME280;7231;59.370;18.016;2023-04-24T07:02:11;100290.25;;;5.94;91.23
14295;BME280;7231;59.370;18.016;2023-04-24T07:04:40;100312.19;;;6.01;90.92
14295;BME280;7231;59.370;18.016;2023-04-24T07:07:08;100313.84;;;5.99;90.98
14295;BME280;7231;59.370;18.016;2023-04-24T07:09:41;100316.34;;;5.96;90.83
14295;BME280;7231;59.370;18.016;2023-04-24T07:12:11;100329.41;;;5.97;90.45
14295;BME280;7231;59.370;18.016;2023-04-24T07:14:40;100317.09;;;5.93;90.38
14295;BME280;7231;59.370;18.016;2023-04-24T07:17:08;100316.41;;;5.97;90.02
14295;BME280;7231;59.370;18.016;2023-04-24T07:19:36;100328.88;;;6.06;89.43
14295;BME280;7231;59.370;18.016;2023-04-24T07:22:04;100338.84;;;6.17;89.41
14295;BME280;7231;59.370;18.016;2023-04-24T07:24:34;100343.22;;;6.18;89.78
14295;BME280;7231;59.370;18.016;2023-04-24T07:27:04;100346.84;;;6.22;89.88
14295;BME280;7231;59.370;18.016;2023-04-24T07:29:32;100206.69;;;5.40;89.76
14295;BME280;7231;59.370;18.016;2023-04-24T07:32:00;100349.56;;;6.25;88.95
14295;BME280;7231;59.370;18.016;2023-04-24T07:34:29;100359.19;;;6.28;88.77
14295;BME280;7231;59.370;18.016;2023-04-24T07:36:57;100356.47;;;6.25;89.55
14295;BME280;7231;59.370;18.016;2023-04-24T07:39:25;100370.50;;;6.28;88.99
14295;BME280;7231;59.370;18.016;2023-04-24T07:41:54;100377.47;;;6.29;89.00
14295;BME280;7231;59.370;18.016;2023-04-24T07:44:23;100328.53;;;5.97;89.05
14295;BME280;7231;59.370;18.016;2023-04-24T07:46:51;100386.88;;;6.26;88.95
14295;BME280;7231;59.370;18.016;2023-04-24T07:49:19;100393.75;;;6.24;89.11
14295;BME280;7231;59.370;18.016;2023-04-24T07:51:48;100397.25;;;6.24;89.21
14295;BME280;7231;59.370;18.016;2023-04-24T07:54:16;100403.34;;;6.25;89.24
14295;BME280;7231;59.370;18.016;2023-04-24T07:56:44;100386.59;;;6.18;89.00
14295;BME280;7231;59.370;18.016;2023-04-24T07:59:12;100399.38;;;6.34;88.52
14295;BME280;7231;59.370;18.016;2023-04-24T08:01:42;100395.16;;;6.38;88.96
14295;BME280;7231;59.370;18.016;2023-04-24T08:04:10;100401.47;;;6.44;88.57
14295;BME280;7231;59.370;18.016;2023-04-24T08:06:38;100399.81;;;6.46;88.74
14295;BME280;7231;59.370;18.016;2023-04-24T08:09:06;100388.47;;;6.44;88.10
14295;BME280;7231;59.370;18.016;2023-04-24T08:11:34;100379.00;;;6.46;88.87
14295;BME280;7231;59.370;18.016;2023-04-24T08:14:02;100395.41;;;6.68;88.12
14295;BME280;7231;59.370;18.016;2023-04-24T08:16:32;100401.84;;;6.77;87.98
14295;BME280;7231;59.370;18.016;2023-04-24T08:19:01;100402.88;;;6.82;88.35
14295;BME280;7231;59.370;18.016;2023-04-24T08:21:29;100384.38;;;6.75;87.73
14295;BME280;7231;59.370;18.016;2023-04-24T08:23:57;100406.44;;;6.84;87.69
14295;BME280;7231;59.370;18.016;2023-04-24T08:26:25;100405.56;;;6.84;87.63
14295;BME280;7231;59.370;18.016;2023-04-24T08:28:53;100408.75;;;6.77;87.40
14295;BME280;7231;59.370;18.016;2023-04-24T08:31:21;100408.66;;;6.74;87.28
14295;BME280;7231;59.370;18.016;2023-04-24T08:33:51;100402.56;;;6.73;87.72
14295;BME280;7231;59.370;18.016;2023-04-24T08:36:20;100409.53;;;6.74;87.15
14295;BME280;7231;59.370;18.016;2023-04-24T08:38:58;100400.56;;;6.66;87.82
14295;BME280;7231;59.370;18.016;2023-04-24T08:41:27;100402.78;;;6.79;87.61
14295;BME280;7231;59.370;18.016;2023-04-24T08:43:55;100411.91;;;6.92;87.74
14295;BME280;7231;59.370;18.016;2023-04-24T08:46:24;100412.25;;;7.01;88.09
14295;BME280;7231;59.370;18.016;2023-04-24T08:48:53;100415.84;;;7.05;87.54
14295;BME280;7231;59.370;18.016;2023-04-24T08:51:22;100415.84;;;7.05;86.96
14295;BME280;7231;59.370;18.016;2023-04-24T08:53:53;100423.56;;;7.02;87.41
14295;BME280;7231;59.370;18.016;2023-04-24T08:56:22;100389.81;;;6.81;87.17
14295;BME280;7231;59.370;18.016;2023-04-24T08:58:51;100427.56;;;6.92;87.09
14295;BME280;7231;59.370;18.016;2023-04-24T09:01:19;100415.69;;;7.00;87.04
14295;BME280;7231;59.370;18.016;2023-04-24T09:03:48;100417.63;;;7.06;87.26
14295;BME280;7231;59.370;18.016;2023-04-24T09:06:18;100418.88;;;7.17;86.87
14295;BME280;7231;59.370;18.016;2023-04-24T09:08:51;100412.22;;;7.25;86.52
14295;BME280;7231;59.370;18.016;2023-04-24T09:11:24;100411.16;;;7.20;86.29
14295;BME280;7231;59.370;18.016;2023-04-24T09:13:53;100414.00;;;7.26;86.59
14295;BME280;7231;59.370;18.016;2023-04-24T09:16:21;100401.47;;;7.16;86.91
14295;BME280;7231;59.370;18.016;2023-04-24T09:18:51;100421.97;;;7.31;86.38
14295;BME280;7231;59.370;18.016;2023-04-24T09:21:20;100376.97;;;7.11;86.66
14295;BME280;7231;59.370;18.016;2023-04-24T09:23:59;100419.84;;;7.44;85.84
14295;BME280;7231;59.370;18.016;2023-04-24T09:26:29;100425.16;;;7.47;85.00
14295;BME280;7231;59.370;18.016;2023-04-24T09:28:59;100432.56;;;7.35;85.64
14295;BME280;7231;59.370;18.016;2023-04-24T09:31:28;100427.19;;;7.31;85.20
14295;BME280;7231;59.370;18.016;2023-04-24T09:33:58;100448.94;;;7.31;85.18
14295;BME280;7231;59.370;18.016;2023-04-24T09:36:29;100438.59;;;7.34;85.01
14295;BME280;7231;59.370;18.016;2023-04-24T09:39:01;100437.97;;;7.41;85.08
14295;BME280;7231;59.370;18.016;2023-04-24T09:41:32;100439.75;;;7.42;84.78
14295;BME280;7231;59.370;18.016;2023-04-24T09:44:11;100433.41;;;7.34;84.83
14295;BME280;7231;59.370;18.016;2023-04-24T09:46:40;100438.66;;;7.36;85.19
14295;BME280;7231;59.370;18.016;2023-04-24T09:49:12;100426.63;;;7.39;84.79
14295;BME280;7231;59.370;18.016;2023-04-24T09:51:42;100323.63;;;7.01;84.75
14295;BME280;7231;59.370;18.016;2023-04-24T09:54:18;100417.09;;;7.67;84.63
14295;BME280;7231;59.370;18.016;2023-04-24T09:56:49;100425.44;;;7.83;84.35
14295;BME280;7231;59.370;18.016;2023-04-24T09:59:18;100414.06;;;7.80;83.38
14295;BME280;7231;59.370;18.016;2023-04-24T10:01:47;100420.31;;;7.87;83.38
14295;BME280;7231;59.370;18.016;2023-04-24T10:04:18;100426.44;;;7.87;83.29
14295;BME280;7231;59.370;18.016;2023-04-24T10:06:48;100415.25;;;7.91;82.79
14295;BME280;7231;59.370;18.016;2023-04-24T10:09:18;100429.19;;;7.92;82.55
14295;BME280;7231;59.370;18.016;2023-04-24T10:11:50;100401.22;;;7.88;82.28
14295;BME280;7231;59.370;18.016;2023-04-24T10:14:20;100415.72;;;8.06;81.74
14295;BME280;7231;59.370;18.016;2023-04-24T10:16:49;100417.56;;;8.09;81.55
14295;BME280;7231;59.370;18.016;2023-04-24T10:19:17;100417.56;;;8.09;81.74
14295;BME280;7231;59.370;18.016;2023-04-24T10:21:47;100411.59;;;8.13;81.20
14295;BME280;7231;59.370;18.016;2023-04-24T10:24:16;100414.25;;;8.14;80.83
14295;BME280;7231;59.370;18.016;2023-04-24T10:26:45;100416.91;;;8.16;80.53
14295;BME280;7231;59.370;18.016;2023-04-24T10:29:17;100418.63;;;8.15;80.88
14295;BME280;7231;59.370;18.016;2023-04-24T10:31:45;100415.91;;;8.12;80.44
14295;BME280;7231;59.370;18.016;2023-04-24T10:34:15;100417.00;;;8.19;80.61
14295;BME280;7231;59.370;18.016;2023-04-24T10:36:47;100422.34;;;8.24;80.41
14295;BME280;7231;59.370;18.016;2023-04-24T10:39:17;100430.44;;;8.31;80.42
14295;BME280;7231;59.370;18.016;2023-04-24T10:41:54;100412.78;;;8.24;79.80
14295;BME280;7231;59.370;18.016;2023-04-24T10:44:24;100440.22;;;8.37;79.51
14295;BME280;7231;59.370;18.016;2023-04-24T10:46:55;100433.13;;;8.33;79.28
14295;BME280;7231;59.370;18.016;2023-04-24T10:49:28;100432.06;;;8.28;79.04
14295;BME280;7231;59.370;18.016;2023-04-24T10:52:00;100419.22;;;8.07;78.85
14295;BME280;7231;59.370;18.016;2023-04-24T10:54:33;100456.56;;;8.04;78.96
14295;BME280;7231;59.370;18.016;2023-04-24T10:57:31;100448.34;;;7.92;79.18
14295;BME280;7231;59.370;18.016;2023-04-24T11:00:19;100456.19;;;7.92;79.96
14295;BME280;7231;59.370;18.016;2023-04-24T11:02:48;100452.81;;;7.96;79.57
14295;BME280;7231;59.370;18.016;2023-04-24T11:05:20;100377.56;;;7.55;79.31
14295;BME280;7231;59.370;18.016;2023-04-24T11:08:10;100455.53;;;7.99;79.11
14295;BME280;7231;59.370;18.016;2023-04-24T11:10:41;100393.50;;;7.64;79.15
14295;BME280;7231;59.370;18.016;2023-04-24T11:13:15;100440.78;;;7.73;79.06
14295;BME280;7231;59.370;18.016;2023-04-24T11:15:43;100453.84;;;7.73;79.47
14295;BME280;7231;59.370;18.016;2023-04-24T11:18:15;100441.53;;;7.69;79.71
14295;BME280;7231;59.370;18.016;2023-04-24T11:20:43;100447.34;;;7.89;79.86
14295;BME280;7231;59.370;18.016;2023-04-24T11:23:13;100405.19;;;7.75;79.86
14295;BME280;7231;59.370;18.016;2023-04-24T11:25:41;100386.56;;;7.64;79.65
14295;BME280;7231;59.370;18.016;2023-04-24T11:28:15;100437.06;;;7.93;79.39
14295;BME280;7231;59.370;18.016;2023-04-24T11:30:44;100452.78;;;7.95;79.87
14295;BME280;7231;59.370;18.016;2023-04-24T11:33:19;100429.88;;;7.86;79.22
14295;BME280;7231;59.370;18.016;2023-04-24T11:35:47;100419.75;;;7.68;79.72
14295;BME280;7231;59.370;18.016;2023-04-24T11:38:16;100458.63;;;7.88;79.73
14295;BME280;7231;59.370;18.016;2023-04-24T11:40:51;100463.75;;;7.85;79.36
14295;BME280;7231;59.370;18.016;2023-04-24T11:43:21;100469.66;;;7.77;79.60
14295;BME280;7231;59.370;18.016;2023-04-24T11:45:50;100469.38;;;7.70;80.04
14295;BME280;7231;59.370;18.016;2023-04-24T11:48:19;100467.63;;;7.69;80.49
14295;BME280;7231;59.370;18.016;2023-04-24T11:50:50;100470.28;;;7.70;80.15
14295;BME280;7231;59.370;18.016;2023-04-24T11:53:19;100473.63;;;7.66;80.33
14295;BME280;7231;59.370;18.016;2023-04-24T11:55:47;100465.22;;;7.49;80.31
14295;BME280;7231;59.370;18.016;2023-04-24T11:58:15;100471.91;;;7.41;81.05
14295;BME280;7231;59.370;18.016;2023-04-24T12:00:55;100471.72;;;7.37;81.65
14295;BME280;7231;59.370;18.016;2023-04-24T12:03:23;100477.88;;;7.39;81.24
14295;BME280;7231;59.370;18.016;2023-04-24T12:05:52;100476.28;;;7.42;80.80
14295;BME280;7231;59.370;18.016;2023-04-24T12:08:27;100469.78;;;7.31;81.79
14295;BME280;7231;59.370;18.016;2023-04-24T12:10:55;100463.63;;;7.29;81.57
14295;BME280;7231;59.370;18.016;2023-04-24T12:13:25;100465.75;;;7.39;81.44
14295;BME280;7231;59.370;18.016;2023-04-24T12:15:54;100456.34;;;7.44;81.70
14295;BME280;7231;59.370;18.016;2023-04-24T12:18:23;100453.00;;;7.48;80.76
14295;BME280;7231;59.370;18.016;2023-04-24T12:20:51;100453.84;;;7.47;80.92
14295;BME280;7231;59.370;18.016;2023-04-24T12:23:33;100449.34;;;7.43;81.12
14295;BME280;7231;59.370;18.016;2023-04-24T12:26:03;100464.53;;;7.55;80.89
14295;BME280;7231;59.370;18.016;2023-04-24T12:28:35;100368.94;;;7.05;80.79
14295;BME280;7231;59.370;18.016;2023-04-24T12:31:06;100463.91;;;7.62;80.82
14295;BME280;7231;59.370;18.016;2023-04-24T12:33:35;100466.53;;;7.62;80.90
14295;BME280;7231;59.370;18.016;2023-04-24T12:36:03;100473.41;;;7.60;80.37
14295;BME280;7231;59.370;18.016;2023-04-24T12:38:32;100466.78;;;7.70;80.71
14295;BME280;7231;59.370;18.016;2023-04-24T12:41:08;100437.63;;;7.56;80.27
14295;BME280;7231;59.370;18.016;2023-04-24T12:43:37;100425.31;;;7.52;80.05
14295;BME280;7231;59.370;18.016;2023-04-24T12:46:06;100443.59;;;7.79;80.42
14295;BME280;7231;59.370;18.016;2023-04-24T12:48:34;100442.09;;;7.87;80.13
14295;BME280;7231;59.370;18.016;2023-04-24T12:51:03;100435.97;;;7.87;79.57
14295;BME280;7231;59.370;18.016;2023-04-24T12:53:31;100433.31;;;7.85;80.25
14295;BME280;7231;59.370;18.016;2023-04-24T12:55:58;100436.97;;;7.90;79.70
14295;BME280;7231;59.370;18.016;2023-04-24T12:58:27;100413.22;;;7.82;79.48
14295;BME280;7231;59.370;18.016;2023-04-24T13:00:55;100426.72;;;7.96;79.47
14295;BME280;7231;59.370;18.016;2023-04-24T13:03:25;100432.59;;;7.89;79.16
14295;BME280;7231;59.370;18.016;2023-04-24T13:05:53;100425.88;;;7.69;79.41
14295;BME280;7231;59.370;18.016;2023-04-24T13:08:21;100456.19;;;7.65;79.62
14295;BME280;7231;59.370;18.016;2023-04-24T13:10:49;100417.47;;;7.52;79.14